Hollywood, Maryland
Current Conditions -  °F | °C
As of 3:17 AM on Saturday 25 Oct 2014 (Local Time) from K2W6 Reporting Station
Clear Clear  
Wind Chill: 40°   Ceiling: Unl
Heat Index: 43°   Visibility: 10mi
Dew Point: 36°   Wind: 5mph
Humidity: 76%   Direction: 260°W
Pressure: 29.96"   Gusts: NA
Location:  38.35°N, 76.57°W
Report Text: K2W6 250717Z AUTO 26004KT 10SM CLR 06/02 A2996 RMK AO1
Loading
Personal Weather Stations






























Interactive Weather Map
Tropical Storm Tracking
New forecast layout! Learn more

10-Day Weather Forecast

Advertisements
Track Severe Weather on mobile